createdAt,value
2018-12-13T00:00:16.477Z,1026.01
2018-12-13T00:01:16.440Z,1025.94
2018-12-13T00:02:16.409Z,1025.90
2018-12-13T00:03:16.372Z,1025.91
2018-12-13T00:04:16.336Z,1025.91
2018-12-13T00:05:16.299Z,1025.92
2018-12-13T00:06:16.266Z,1025.86
2018-12-13T00:07:16.229Z,1025.83
2018-12-13T00:08:16.196Z,1025.87
2018-12-13T00:09:16.159Z,1025.83
2018-12-13T00:10:16.127Z,1025.80
2018-12-13T00:11:16.088Z,1025.79
2018-12-13T00:12:16.055Z,1025.82
2018-12-13T00:13:16.019Z,1025.77
2018-12-13T00:14:15.985Z,1025.83
2018-12-13T00:15:15.949Z,1025.83
2018-12-13T00:16:15.914Z,1025.84
2018-12-13T00:17:15.879Z,1025.86
2018-12-13T00:18:15.843Z,1025.87
2018-12-13T00:19:15.809Z,1025.86
2018-12-13T00:20:15.774Z,1025.86
2018-12-13T00:21:15.736Z,1025.89
2018-12-13T00:22:15.702Z,1025.88
2018-12-13T00:23:15.667Z,1025.88
2018-12-13T00:24:15.632Z,1025.87
2018-12-13T00:25:15.597Z,1025.84
2018-12-13T00:26:15.563Z,1025.88
2018-12-13T00:27:15.528Z,1025.88
2018-12-13T00:28:15.493Z,1025.84
2018-12-13T00:29:15.457Z,1025.87
2018-12-13T00:30:15.422Z,1025.82
2018-12-13T00:31:15.388Z,1025.85
2018-12-13T00:32:15.352Z,1025.88
2018-12-13T00:33:15.316Z,1025.88
2018-12-13T00:34:15.282Z,1025.89
2018-12-13T00:35:15.248Z,1025.87
2018-12-13T00:36:15.214Z,1025.89
2018-12-13T00:37:15.178Z,1025.84
2018-12-13T00:38:15.143Z,1025.89
2018-12-13T00:39:15.108Z,1025.84
2018-12-13T00:40:15.074Z,1025.87
2018-12-13T00:41:15.037Z,1025.84
2018-12-13T00:42:15.003Z,1025.85
2018-12-13T00:43:14.967Z,1025.84
2018-12-13T00:44:14.936Z,1025.84
2018-12-13T00:45:14.905Z,1025.84
2018-12-13T00:46:14.863Z,1025.81
2018-12-13T00:47:14.827Z,1025.83
2018-12-13T00:48:14.793Z,1025.84
2018-12-13T00:49:14.757Z,1025.82
2018-12-13T00:50:14.724Z,1025.78
2018-12-13T00:51:14.689Z,1025.81
2018-12-13T00:52:14.654Z,1025.82
2018-12-13T00:53:14.617Z,1025.77
2018-12-13T00:54:14.583Z,1025.83
2018-12-13T00:55:14.551Z,1025.81
2018-12-13T00:56:14.515Z,1025.79
2018-12-13T00:57:14.481Z,1025.85
2018-12-13T00:58:14.445Z,1025.80
2018-12-13T00:59:14.411Z,1025.80
2018-12-13T01:00:14.376Z,1025.81
2018-12-13T01:01:14.339Z,1025.83
2018-12-13T01:02:14.306Z,1025.80
2018-12-13T01:03:14.270Z,1025.84
2018-12-13T01:04:14.236Z,1025.81
2018-12-13T01:05:14.201Z,1025.85
2018-12-13T01:06:14.164Z,1025.83
2018-12-13T01:07:14.132Z,1025.82
2018-12-13T01:08:14.097Z,1025.85
2018-12-13T01:09:14.062Z,1025.86
2018-12-13T01:10:14.026Z,1025.84
2018-12-13T01:11:13.997Z,1025.87
2018-12-13T01:12:13.956Z,1025.84
2018-12-13T01:13:13.921Z,1025.81
2018-12-13T01:14:13.889Z,1025.85
2018-12-13T01:15:13.853Z,1025.85
2018-12-13T01:16:13.818Z,1025.88
2018-12-13T01:17:13.784Z,1025.84
2018-12-13T01:18:13.748Z,1025.86
2018-12-13T01:19:13.714Z,1025.81
2018-12-13T01:20:13.680Z,1025.83
2018-12-13T01:21:13.644Z,1025.81
2018-12-13T01:22:13.609Z,1025.80
2018-12-13T01:23:13.575Z,1025.81
2018-12-13T01:24:13.541Z,1025.78
2018-12-13T01:25:13.504Z,1025.78
2018-12-13T01:26:13.470Z,1025.78
2018-12-13T01:27:13.436Z,1025.76
2018-12-13T01:28:13.402Z,1025.74
2018-12-13T01:29:13.368Z,1025.72
2018-12-13T01:30:13.332Z,1025.75
2018-12-13T01:31:13.299Z,1025.75
2018-12-13T01:32:13.263Z,1025.71
2018-12-13T01:33:13.227Z,1025.70
2018-12-13T01:34:13.194Z,1025.70
2018-12-13T01:35:13.160Z,1025.70
2018-12-13T01:36:13.126Z,1025.65
2018-12-13T01:37:13.090Z,1025.66
2018-12-13T01:38:13.057Z,1025.65
2018-12-13T01:39:13.020Z,1025.61
2018-12-13T01:40:12.986Z,1025.64
2018-12-13T01:41:12.950Z,1025.60
2018-12-13T01:42:12.917Z,1025.60
2018-12-13T01:43:12.882Z,1025.58
2018-12-13T01:44:12.848Z,1025.60
2018-12-13T01:45:12.813Z,1025.59
2018-12-13T01:46:12.778Z,1025.57
2018-12-13T01:47:12.745Z,1025.56
2018-12-13T01:48:12.710Z,1025.57
2018-12-13T01:49:12.675Z,1025.57
2018-12-13T01:50:12.641Z,1025.56
2018-12-13T01:51:12.606Z,1025.49
2018-12-13T01:52:12.572Z,1025.51
2018-12-13T01:53:12.536Z,1025.53
2018-12-13T01:54:12.503Z,1025.49
2018-12-13T01:55:12.468Z,1025.51
2018-12-13T01:56:12.433Z,1025.50
2018-12-13T01:57:12.399Z,1025.49
2018-12-13T01:58:12.365Z,1025.55
2018-12-13T01:59:12.329Z,1025.50
2018-12-13T02:00:12.296Z,1025.47
2018-12-13T02:01:12.261Z,1025.50
2018-12-13T02:02:12.225Z,1025.50
2018-12-13T02:03:12.195Z,1025.48
2018-12-13T02:04:12.159Z,1025.51
2018-12-13T02:05:12.122Z,1025.50
2018-12-13T02:06:12.088Z,1025.51
2018-12-13T02:07:12.090Z,1025.51
2018-12-13T02:08:12.019Z,1025.51
2018-12-13T02:09:11.983Z,1025.54
2018-12-13T02:10:11.952Z,1025.56
2018-12-13T02:11:11.918Z,1025.53
2018-12-13T02:12:11.882Z,1025.51
2018-12-13T02:13:11.847Z,1025.50
2018-12-13T02:14:11.811Z,1025.50
2018-12-13T02:15:11.778Z,1025.50
2018-12-13T02:16:11.744Z,1025.52
2018-12-13T02:17:11.709Z,1025.50
2018-12-13T02:18:11.675Z,1025.50
2018-12-13T02:19:11.641Z,1025.54
2018-12-13T02:20:11.608Z,1025.49
2018-12-13T02:21:11.570Z,1025.50
2018-12-13T02:22:11.540Z,1025.49
2018-12-13T02:23:11.501Z,1025.50
2018-12-13T02:24:11.467Z,1025.47
2018-12-13T02:25:11.432Z,1025.49
2018-12-13T02:26:11.401Z,1025.50
2018-12-13T02:27:11.363Z,1025.50
2018-12-13T02:28:11.330Z,1025.53
2018-12-13T02:29:11.297Z,1025.55
2018-12-13T02:30:11.261Z,1025.52
2018-12-13T02:31:11.226Z,1025.50
2018-12-13T02:32:11.192Z,1025.51
2018-12-13T02:33:11.156Z,1025.51
2018-12-13T02:34:11.120Z,1025.53
2018-12-13T02:35:11.088Z,1025.48
2018-12-13T02:36:11.054Z,1025.48
2018-12-13T02:37:11.021Z,1025.48
2018-12-13T02:38:10.984Z,1025.48
2018-12-13T02:39:10.949Z,1025.44
2018-12-13T02:40:10.915Z,1025.43
2018-12-13T02:41:10.885Z,1025.41
2018-12-13T02:42:10.845Z,1025.41
2018-12-13T02:43:10.811Z,1025.39
2018-12-13T02:44:10.782Z,1025.39
2018-12-13T02:45:10.741Z,1025.43
2018-12-13T02:46:10.708Z,1025.42
2018-12-13T02:47:10.673Z,1025.42
2018-12-13T02:48:10.639Z,1025.38
2018-12-13T02:49:10.605Z,1025.38
2018-12-13T02:50:10.571Z,1025.37
2018-12-13T02:51:10.535Z,1025.38
2018-12-13T02:52:10.499Z,1025.32
2018-12-13T02:53:10.466Z,1025.31
2018-12-13T02:54:10.432Z,1025.34
2018-12-13T02:55:10.396Z,1025.33
2018-12-13T02:56:10.361Z,1025.33
2018-12-13T02:57:10.326Z,1025.32
2018-12-13T02:58:10.294Z,1025.32
2018-12-13T02:59:10.258Z,1025.31
2018-12-13T03:00:10.221Z,1025.30
2018-12-13T03:01:10.187Z,1025.31
2018-12-13T03:02:10.155Z,1025.33
2018-12-13T03:03:10.122Z,1025.33
2018-12-13T03:04:10.083Z,1025.33
2018-12-13T03:05:10.049Z,1025.31
2018-12-13T03:06:10.015Z,1025.29
2018-12-13T03:07:13.824Z,1025.30
2018-12-13T03:08:09.945Z,1025.25
2018-12-13T03:09:09.912Z,1025.24
2018-12-13T03:10:09.879Z,1025.26
2018-12-13T03:11:09.842Z,1025.21
2018-12-13T03:12:09.808Z,1025.18
2018-12-13T03:13:09.781Z,1025.17
2018-12-13T03:14:09.741Z,1025.17
2018-12-13T03:15:09.704Z,1025.15
2018-12-13T03:16:09.669Z,1025.18
2018-12-13T03:17:09.633Z,1025.15
2018-12-13T03:18:09.599Z,1025.14
2018-12-13T03:19:09.564Z,1025.17
2018-12-13T03:20:09.546Z,1025.16
2018-12-13T03:21:09.495Z,1025.14
2018-12-13T03:22:09.459Z,1025.19
2018-12-13T03:23:09.430Z,1025.18
2018-12-13T03:24:09.392Z,1025.16
2018-12-13T03:25:09.356Z,1025.21
2018-12-13T03:26:09.325Z,1025.20
2018-12-13T03:27:09.289Z,1025.21
2018-12-13T03:28:09.253Z,1025.20
2018-12-13T03:29:09.216Z,1025.18
2018-12-13T03:30:09.193Z,1025.16
2018-12-13T03:31:09.151Z,1025.15
2018-12-13T03:32:09.117Z,1025.15
2018-12-13T03:33:09.079Z,1025.17
2018-12-13T03:34:09.049Z,1025.18
2018-12-13T03:35:09.010Z,1025.15
2018-12-13T03:36:08.975Z,1025.14
2018-12-13T03:37:08.941Z,1025.20
2018-12-13T03:38:08.913Z,1025.17
2018-12-13T03:39:08.872Z,1025.16
2018-12-13T03:40:08.841Z,1025.19
2018-12-13T03:41:08.804Z,1025.16
2018-12-13T03:42:08.768Z,1025.08
2018-12-13T03:43:08.733Z,1025.09
2018-12-13T03:44:08.706Z,1025.07
2018-12-13T03:45:08.665Z,1025.05
2018-12-13T03:46:08.630Z,1025.06
2018-12-13T03:47:08.596Z,1025.05
2018-12-13T03:48:08.562Z,1025.06
2018-12-13T03:49:08.526Z,1025.08
2018-12-13T03:50:08.492Z,1025.05
2018-12-13T03:51:08.458Z,1025.03
2018-12-13T03:52:08.422Z,1025.03
2018-12-13T03:53:08.442Z,1025.03
2018-12-13T03:54:08.353Z,1024.99
2018-12-13T03:55:08.323Z,1025.06
2018-12-13T03:56:08.286Z,1025.04
2018-12-13T03:57:08.249Z,1025.02
2018-12-13T03:58:08.216Z,1025.02
2018-12-13T03:59:08.182Z,1025.03
2018-12-13T04:00:08.147Z,1025.01
2018-12-13T04:01:08.112Z,1025.02
2018-12-13T04:02:08.079Z,1024.98
2018-12-13T04:03:08.044Z,1024.97
2018-12-13T04:04:08.012Z,1024.97
2018-12-13T04:05:07.974Z,1025.00
2018-12-13T04:06:07.941Z,1024.98
2018-12-13T04:07:07.917Z,1024.99
2018-12-13T04:08:07.871Z,1024.97
2018-12-13T04:09:07.837Z,1025.00
2018-12-13T04:10:07.800Z,1024.97
2018-12-13T04:11:07.776Z,1024.99
2018-12-13T04:12:07.733Z,1024.97
2018-12-13T04:13:07.697Z,1025.00
2018-12-13T04:14:07.670Z,1024.97
2018-12-13T04:15:07.630Z,1024.99
2018-12-13T04:16:07.593Z,1024.99
2018-12-13T04:17:07.560Z,1024.94
2018-12-13T04:18:07.524Z,1024.96
2018-12-13T04:19:07.489Z,1024.97
2018-12-13T04:20:07.453Z,1025.01
2018-12-13T04:21:07.421Z,1025.00
2018-12-13T04:22:07.385Z,1024.95
2018-12-13T04:23:07.351Z,1024.98
2018-12-13T04:24:07.328Z,1025.00
2018-12-13T04:25:07.278Z,1025.01
2018-12-13T04:26:07.246Z,1025.00
2018-12-13T04:27:07.209Z,1024.99
2018-12-13T04:28:07.174Z,1025.01
2018-12-13T04:29:07.142Z,1024.98
2018-12-13T04:30:07.105Z,1025.00
2018-12-13T04:31:07.069Z,1024.97
2018-12-13T04:32:07.035Z,1024.94
2018-12-13T04:33:07.004Z,1024.97
2018-12-13T04:34:06.966Z,1024.91
2018-12-13T04:35:06.931Z,1024.91
2018-12-13T04:36:06.898Z,1024.89
2018-12-13T04:37:06.859Z,1024.94
2018-12-13T04:38:06.826Z,1024.89
2018-12-13T04:39:06.801Z,1024.90
2018-12-13T04:40:06.756Z,1024.85
2018-12-13T04:41:06.719Z,1024.89
2018-12-13T04:42:06.690Z,1024.84
2018-12-13T04:43:06.651Z,1024.83
2018-12-13T04:44:06.616Z,1024.81
2018-12-13T04:45:06.581Z,1024.82
2018-12-13T04:46:06.545Z,1024.86
2018-12-13T04:47:06.513Z,1024.85
2018-12-13T04:48:06.476Z,1024.88
2018-12-13T04:49:06.550Z,1024.88
2018-12-13T04:50:06.406Z,1024.90
2018-12-13T04:51:06.375Z,1024.89
2018-12-13T04:52:06.337Z,1024.89
2018-12-13T04:53:06.301Z,1024.88
2018-12-13T04:54:06.269Z,1024.91
2018-12-13T04:55:06.231Z,1024.86
2018-12-13T04:56:06.200Z,1024.91
2018-12-13T04:57:06.161Z,1024.90
2018-12-13T04:58:06.128Z,1024.88
2018-12-13T04:59:06.091Z,1024.91
2018-12-13T05:00:06.057Z,1024.94
2018-12-13T05:01:06.023Z,1024.92
2018-12-13T05:02:05.985Z,1024.92
2018-12-13T05:03:05.951Z,1024.89
2018-12-13T05:04:05.915Z,1024.85
2018-12-13T05:05:05.883Z,1024.87
2018-12-13T05:06:05.845Z,1024.86
2018-12-13T05:07:05.810Z,1024.79
2018-12-13T05:08:05.776Z,1024.79
2018-12-13T05:09:05.738Z,1024.82
2018-12-13T05:10:05.703Z,1024.79
2018-12-13T05:11:05.669Z,1024.72
2018-12-13T05:12:05.636Z,1024.77
2018-12-13T05:13:05.598Z,1024.74
2018-12-13T05:14:05.564Z,1024.75
2018-12-13T05:15:05.527Z,1024.71
2018-12-13T05:16:05.492Z,1024.73
2018-12-13T05:17:05.459Z,1024.72
2018-12-13T05:18:05.422Z,1024.68
2018-12-13T05:19:05.388Z,1024.70
2018-12-13T05:20:05.353Z,1024.64
2018-12-13T05:21:05.316Z,1024.63
2018-12-13T05:22:05.281Z,1024.63
2018-12-13T05:23:05.247Z,1024.65
2018-12-13T05:24:05.213Z,1024.64
2018-12-13T05:25:05.177Z,1024.66
2018-12-13T05:26:05.141Z,1024.63
2018-12-13T05:27:05.105Z,1024.65
2018-12-13T05:28:05.072Z,1024.59
2018-12-13T05:29:05.036Z,1024.63
2018-12-13T05:30:05.001Z,1024.61
2018-12-13T05:31:04.964Z,1024.63
2018-12-13T05:32:04.931Z,1024.66
2018-12-13T05:33:04.897Z,1024.64
2018-12-13T05:34:04.859Z,1024.61
2018-12-13T05:35:04.826Z,1024.63
2018-12-13T05:36:04.789Z,1024.64
2018-12-13T05:37:04.753Z,1024.62
2018-12-13T05:38:04.719Z,1024.59
2018-12-13T05:39:04.684Z,1024.63
2018-12-13T05:40:04.648Z,1024.62
2018-12-13T05:41:04.612Z,1024.63
2018-12-13T05:42:04.577Z,1024.58
2018-12-13T05:43:04.544Z,1024.57
2018-12-13T05:44:04.508Z,1024.62
2018-12-13T05:45:04.472Z,1024.61
2018-12-13T05:46:04.439Z,1024.57
2018-12-13T05:47:04.401Z,1024.57
2018-12-13T05:48:04.368Z,1024.57
2018-12-13T05:49:04.332Z,1024.59
2018-12-13T05:50:04.296Z,1024.60
2018-12-13T05:51:04.263Z,1024.57
2018-12-13T05:52:04.226Z,1024.59
2018-12-13T05:53:04.191Z,1024.59
2018-12-13T05:54:04.157Z,1024.56
2018-12-13T05:55:04.122Z,1024.54
2018-12-13T05:56:04.086Z,1024.53
2018-12-13T05:57:04.051Z,1024.53
2018-12-13T05:58:04.016Z,1024.53
2018-12-13T05:59:03.980Z,1024.54
2018-12-13T06:00:03.946Z,1024.54
2018-12-13T06:01:03.911Z,1024.50
2018-12-13T06:02:03.874Z,1024.46
2018-12-13T06:03:03.839Z,1024.44
2018-12-13T06:04:03.806Z,1024.45
2018-12-13T06:05:03.769Z,1024.42
2018-12-13T06:06:03.735Z,1024.39
2018-12-13T06:07:03.704Z,1024.40
2018-12-13T06:08:03.665Z,1024.42
2018-12-13T06:09:03.628Z,1024.42
2018-12-13T06:10:03.594Z,1024.43
2018-12-13T06:11:03.559Z,1024.46
2018-12-13T06:12:03.523Z,1024.45
2018-12-13T06:13:03.488Z,1024.47
2018-12-13T06:14:03.452Z,1024.44
2018-12-13T06:15:03.418Z,1024.39
2018-12-13T06:16:03.387Z,1024.43
2018-12-13T06:17:03.349Z,1024.40
2018-12-13T06:18:06.832Z,1024.42
2018-12-13T06:19:03.278Z,1024.42
2018-12-13T06:20:03.243Z,1024.39
2018-12-13T06:21:03.205Z,1024.40
2018-12-13T06:22:03.172Z,1024.39
2018-12-13T06:23:03.137Z,1024.40
2018-12-13T06:24:03.101Z,1024.38
2018-12-13T06:25:03.070Z,1024.42
2018-12-13T06:26:03.030Z,1024.44
2018-12-13T06:27:02.997Z,1024.47
2018-12-13T06:28:02.961Z,1024.47
2018-12-13T06:29:02.923Z,1024.47
2018-12-13T06:30:07.454Z,1024.48
2018-12-13T06:31:02.855Z,1024.47
2018-12-13T06:32:02.818Z,1024.52
2018-12-13T06:33:02.788Z,1024.54
2018-12-13T06:34:02.747Z,1024.54
2018-12-13T06:35:02.716Z,1024.54
2018-12-13T06:36:02.677Z,1024.58
2018-12-13T06:37:02.639Z,1024.55
2018-12-13T06:38:02.606Z,1024.55
2018-12-13T06:39:02.569Z,1024.54
2018-12-13T06:40:02.536Z,1024.58
2018-12-13T06:41:02.497Z,1024.58
2018-12-13T06:42:02.464Z,1024.55
2018-12-13T06:43:02.426Z,1024.55
2018-12-13T06:44:02.394Z,1024.56
2018-12-13T06:45:02.355Z,1024.51
2018-12-13T06:46:03.738Z,1024.55
2018-12-13T06:47:02.284Z,1024.56
2018-12-13T06:48:02.248Z,1024.58
2018-12-13T06:49:02.211Z,1024.59
2018-12-13T06:50:02.176Z,1024.55
2018-12-13T06:51:02.440Z,1024.57
2018-12-13T06:52:02.105Z,1024.53
2018-12-13T06:53:02.067Z,1024.54
2018-12-13T06:54:02.032Z,1024.55
2018-12-13T06:55:01.997Z,1024.57
2018-12-13T06:56:01.960Z,1024.57
2018-12-13T06:57:01.924Z,1024.62
2018-12-13T06:58:01.889Z,1024.61
2018-12-13T06:59:01.852Z,1024.62
2018-12-13T07:00:01.816Z,1024.63
2018-12-13T07:01:01.780Z,1024.60
2018-12-13T07:02:01.746Z,1024.62
2018-12-13T07:03:01.710Z,1024.63
2018-12-13T07:04:01.673Z,1024.60
2018-12-13T07:05:01.642Z,1024.61
2018-12-13T07:06:01.600Z,1024.62
2018-12-13T07:07:01.564Z,1024.62
2018-12-13T07:08:07.620Z,1024.60
2018-12-13T07:09:01.493Z,1024.59
2018-12-13T07:10:01.457Z,1024.59
2018-12-13T07:11:01.421Z,1024.56
2018-12-13T07:12:01.385Z,1024.57
2018-12-13T07:13:01.349Z,1024.58
2018-12-13T07:14:01.316Z,1024.60
2018-12-13T07:15:01.290Z,1024.55
2018-12-13T07:16:01.243Z,1024.53
2018-12-13T07:17:01.205Z,1024.53
2018-12-13T07:18:01.173Z,1024.52
2018-12-13T07:19:01.135Z,1024.53
2018-12-13T07:20:01.101Z,1024.53
2018-12-13T07:21:01.063Z,1024.47
2018-12-13T07:22:01.029Z,1024.47
2018-12-13T07:23:00.993Z,1024.48
2018-12-13T07:24:00.955Z,1024.53
2018-12-13T07:25:00.921Z,1024.49
2018-12-13T07:26:00.888Z,1024.46
2018-12-13T07:27:00.853Z,1024.50
2018-12-13T07:28:00.822Z,1024.47
2018-12-13T07:29:00.778Z,1024.48
2018-12-13T07:30:00.742Z,1024.44
2018-12-13T07:31:00.707Z,1024.49
2018-12-13T07:32:00.671Z,1024.50
2018-12-13T07:33:00.633Z,1024.51
2018-12-13T07:34:00.600Z,1024.51
2018-12-13T07:35:01.374Z,1024.51
2018-12-13T07:36:00.528Z,1024.47
2018-12-13T07:37:00.492Z,1024.50
2018-12-13T07:38:00.454Z,1024.51
2018-12-13T07:39:00.419Z,1024.52
2018-12-13T07:40:00.382Z,1024.52
2018-12-13T07:41:00.347Z,1024.55
2018-12-13T07:42:00.310Z,1024.57
2018-12-13T07:43:00.273Z,1024.57
2018-12-13T07:44:00.237Z,1024.55
2018-12-13T07:45:00.201Z,1024.55
2018-12-13T07:46:00.167Z,1024.56
2018-12-13T07:47:00.129Z,1024.58
2018-12-13T07:48:00.093Z,1024.58
2018-12-13T07:49:00.056Z,1024.54
2018-12-13T07:50:00.022Z,1024.54
2018-12-13T07:50:59.985Z,1024.57
2018-12-13T07:51:59.949Z,1024.58
2018-12-13T07:52:59.912Z,1024.55
2018-12-13T07:53:59.876Z,1024.54
2018-12-13T07:54:59.839Z,1024.56
2018-12-13T07:55:59.804Z,1024.54
2018-12-13T07:56:59.767Z,1024.57
2018-12-13T07:57:59.730Z,1024.55
2018-12-13T07:58:59.697Z,1024.58
2018-12-13T07:59:59.658Z,1024.59
2018-12-13T08:00:59.623Z,1024.60
2018-12-13T08:01:59.585Z,1024.58
2018-12-13T08:02:59.549Z,1024.60
2018-12-13T08:03:59.515Z,1024.58
2018-12-13T08:04:59.477Z,1024.58
2018-12-13T08:05:59.441Z,1024.54
2018-12-13T08:06:59.405Z,1024.56
2018-12-13T08:07:59.368Z,1024.55
2018-12-13T08:08:59.332Z,1024.53
2018-12-13T08:09:59.296Z,1024.54
2018-12-13T08:10:59.259Z,1024.59
2018-12-13T08:11:59.225Z,1024.60
2018-12-13T08:12:59.188Z,1024.59
2018-12-13T08:13:59.152Z,1024.58
2018-12-13T08:14:59.115Z,1024.57
2018-12-13T08:15:59.080Z,1024.57
2018-12-13T08:16:59.043Z,1024.54
2018-12-13T08:17:59.008Z,1024.55
2018-12-13T08:18:58.974Z,1024.56
2018-12-13T08:19:58.937Z,1024.53
2018-12-13T08:20:58.901Z,1024.52
2018-12-13T08:21:58.864Z,1024.54
2018-12-13T08:22:58.830Z,1024.55
2018-12-13T08:23:58.794Z,1024.54
2018-12-13T08:24:58.758Z,1024.53
2018-12-13T08:25:58.723Z,1024.56
2018-12-13T08:26:58.687Z,1024.58
2018-12-13T08:27:58.650Z,1024.55
2018-12-13T08:28:58.613Z,1024.53
2018-12-13T08:29:58.579Z,1024.56
2018-12-13T08:30:58.542Z,1024.57
2018-12-13T08:31:58.509Z,1024.55
2018-12-13T08:32:58.471Z,1024.58
2018-12-13T08:33:58.436Z,1024.57
2018-12-13T08:34:58.401Z,1024.58
2018-12-13T08:35:58.366Z,1024.58
2018-12-13T08:36:58.328Z,1024.58
2018-12-13T08:37:58.293Z,1024.55
2018-12-13T08:38:58.259Z,1024.57
2018-12-13T08:39:58.224Z,1024.60
2018-12-13T08:40:58.190Z,1024.60
2018-12-13T08:41:58.152Z,1024.54
2018-12-13T08:42:58.117Z,1024.55
2018-12-13T08:43:58.085Z,1024.57
2018-12-13T08:44:58.050Z,1024.56
2018-12-13T08:45:58.012Z,1024.57
2018-12-13T08:46:57.977Z,1024.53
2018-12-13T08:47:57.941Z,1024.58
2018-12-13T08:48:57.904Z,1024.57
2018-12-13T08:49:57.870Z,1024.53
2018-12-13T08:50:57.837Z,1024.50
2018-12-13T08:51:57.806Z,1024.53
2018-12-13T08:52:57.766Z,1024.52
2018-12-13T08:53:57.730Z,1024.46
2018-12-13T08:54:57.694Z,1024.52
2018-12-13T08:55:57.663Z,1024.48
2018-12-13T08:56:57.626Z,1024.49
2018-12-13T08:57:57.589Z,1024.49
2018-12-13T08:58:57.554Z,1024.54
2018-12-13T08:59:57.522Z,1024.55
2018-12-13T09:00:57.483Z,1024.49
2018-12-13T09:01:57.449Z,1024.48
2018-12-13T09:02:57.417Z,1024.47
2018-12-13T09:03:57.380Z,1024.49
2018-12-13T09:04:57.343Z,1024.45
2018-12-13T09:05:57.308Z,1024.48
2018-12-13T09:06:57.273Z,1024.45
2018-12-13T09:07:57.238Z,1024.47
2018-12-13T09:08:57.203Z,1024.47
2018-12-13T09:09:57.170Z,1024.43
2018-12-13T09:10:57.136Z,1024.48
2018-12-13T09:11:57.099Z,1024.43
2018-12-13T09:12:57.066Z,1024.42
2018-12-13T09:13:57.028Z,1024.37
2018-12-13T09:14:56.994Z,1024.39
2018-12-13T09:15:56.960Z,1024.39
2018-12-13T09:16:56.923Z,1024.45
2018-12-13T09:17:56.888Z,1024.46
2018-12-13T09:18:56.854Z,1024.43
2018-12-13T09:19:56.820Z,1024.42
2018-12-13T09:20:56.783Z,1024.42
2018-12-13T09:21:56.748Z,1024.43
2018-12-13T09:22:56.713Z,1024.38
2018-12-13T09:23:56.679Z,1024.38
2018-12-13T09:24:56.645Z,1024.37
2018-12-13T09:25:56.611Z,1024.37
2018-12-13T09:26:56.574Z,1024.36
2018-12-13T09:27:56.540Z,1024.35
2018-12-13T09:28:56.504Z,1024.34
2018-12-13T09:29:56.470Z,1024.32
2018-12-13T09:30:56.434Z,1024.31
2018-12-13T09:31:56.400Z,1024.30
2018-12-13T09:32:56.364Z,1024.27
2018-12-13T09:33:56.330Z,1024.30
2018-12-13T09:34:56.296Z,1024.35
2018-12-13T09:35:56.263Z,1024.32
2018-12-13T09:36:56.227Z,1024.32
2018-12-13T09:37:56.190Z,1024.29
2018-12-13T09:38:56.160Z,1024.30
2018-12-13T09:39:56.123Z,1024.20
2018-12-13T09:40:56.085Z,1024.22
2018-12-13T09:41:56.051Z,1024.21
2018-12-13T09:42:56.018Z,1024.23
2018-12-13T09:43:55.982Z,1024.22
2018-12-13T09:44:55.948Z,1024.24
2018-12-13T09:45:55.911Z,1024.21
2018-12-13T09:46:55.883Z,1024.19
2018-12-13T09:47:55.842Z,1024.18
2018-12-13T09:48:55.809Z,1024.17
2018-12-13T09:49:55.833Z,1024.13
2018-12-13T09:50:55.739Z,1024.11
2018-12-13T09:51:55.704Z,1024.11
2018-12-13T09:52:55.669Z,1024.07
2018-12-13T09:53:55.634Z,1024.09
2018-12-13T09:54:55.600Z,1024.05
2018-12-13T09:55:55.566Z,1024.05
2018-12-13T09:56:55.531Z,1024.05
2018-12-13T09:57:55.495Z,1024.02
2018-12-13T09:58:55.468Z,1024.05
2018-12-13T09:59:55.426Z,1024.07
2018-12-13T10:00:55.389Z,1024.05
2018-12-13T10:01:55.357Z,1024.08
2018-12-13T10:02:55.323Z,1024.01
2018-12-13T10:03:55.288Z,1023.99
2018-12-13T10:04:55.254Z,1023.98
2018-12-13T10:05:55.219Z,1024.03
2018-12-13T10:06:55.183Z,1024.02
2018-12-13T10:07:55.150Z,1024.02
2018-12-13T10:08:55.120Z,1024.00
2018-12-13T10:09:55.081Z,1024.02
2018-12-13T10:10:55.045Z,1023.99
2018-12-13T10:11:55.011Z,1023.99
2018-12-13T10:12:54.976Z,1024.00
2018-12-13T10:13:54.945Z,1024.02
2018-12-13T10:14:54.907Z,1024.00
2018-12-13T10:15:54.873Z,1024.02
2018-12-13T10:16:54.839Z,1024.02
2018-12-13T10:17:54.806Z,1024.00
2018-12-13T10:18:54.770Z,1024.02
2018-12-13T10:19:54.740Z,1023.99
2018-12-13T10:20:54.701Z,1024.01
2018-12-13T10:21:54.665Z,1023.96
2018-12-13T10:22:54.631Z,1023.93
2018-12-13T10:23:54.597Z,1023.92
2018-12-13T10:24:54.561Z,1023.90
2018-12-13T10:25:59.483Z,1023.90
2018-12-13T10:26:54.496Z,1023.91
2018-12-13T10:27:54.459Z,1023.91
2018-12-13T10:28:54.425Z,1023.92
2018-12-13T10:29:54.390Z,1023.91
2018-12-13T10:30:54.355Z,1023.90
2018-12-13T10:31:54.319Z,1023.89
2018-12-13T10:32:54.288Z,1023.89
2018-12-13T10:33:54.250Z,1023.90
2018-12-13T10:34:54.216Z,1023.95
2018-12-13T10:35:54.188Z,1023.92
2018-12-13T10:36:54.145Z,1023.90
2018-12-13T10:37:54.117Z,1023.91
2018-12-13T10:38:54.082Z,1023.89
2018-12-13T10:39:54.041Z,1023.90
2018-12-13T10:40:54.007Z,1023.88
2018-12-13T10:41:53.970Z,1023.86
2018-12-13T10:42:53.937Z,1023.88
2018-12-13T10:43:53.905Z,1023.86
2018-12-13T10:44:53.866Z,1023.85
2018-12-13T10:45:53.833Z,1023.87
2018-12-13T10:46:54.219Z,1023.82
2018-12-13T10:47:53.770Z,1023.82
2018-12-13T10:48:53.729Z,1023.84
2018-12-13T10:49:53.694Z,1023.81
2018-12-13T10:50:53.661Z,1023.82
2018-12-13T10:51:53.625Z,1023.76
2018-12-13T10:52:53.589Z,1023.77
2018-12-13T10:53:53.608Z,1023.74
2018-12-13T10:54:53.521Z,1023.72
2018-12-13T10:55:53.486Z,1023.77
2018-12-13T10:56:53.452Z,1023.71
2018-12-13T10:57:53.418Z,1023.67
2018-12-13T10:58:53.382Z,1023.71
2018-12-13T10:59:53.347Z,1023.69
2018-12-13T11:00:53.315Z,1023.67
2018-12-13T11:01:53.277Z,1023.68
2018-12-13T11:02:53.244Z,1023.69
2018-12-13T11:03:53.211Z,1023.68
2018-12-13T11:04:53.173Z,1023.68
2018-12-13T11:05:53.144Z,1023.70
2018-12-13T11:06:53.106Z,1023.73
2018-12-13T11:07:53.070Z,1023.72
2018-12-13T11:08:59.251Z,1023.72
2018-12-13T11:09:53.002Z,1023.71
2018-12-13T11:10:52.969Z,1023.71
2018-12-13T11:11:52.933Z,1023.69
2018-12-13T11:12:52.896Z,1023.71
2018-12-13T11:13:52.863Z,1023.68
2018-12-13T11:14:52.829Z,1023.70
2018-12-13T11:15:52.794Z,1023.71
2018-12-13T11:16:52.758Z,1023.74
2018-12-13T11:17:52.724Z,1023.73
2018-12-13T11:18:52.688Z,1023.72
2018-12-13T11:19:52.654Z,1023.71
2018-12-13T11:20:52.620Z,1023.73
2018-12-13T11:21:52.585Z,1023.75
2018-12-13T11:22:52.552Z,1023.78
2018-12-13T11:23:52.518Z,1023.74
2018-12-13T11:24:52.482Z,1023.74
2018-12-13T11:25:52.447Z,1023.75
2018-12-13T11:26:52.415Z,1023.73
2018-12-13T11:27:52.378Z,1023.73
2018-12-13T11:28:52.343Z,1023.76
2018-12-13T11:29:52.310Z,1023.72
2018-12-13T11:30:52.275Z,1023.80
2018-12-13T11:31:52.243Z,1023.76
2018-12-13T11:32:52.205Z,1023.80
2018-12-13T11:33:52.176Z,1023.80
2018-12-13T11:34:52.137Z,1023.82
2018-12-13T11:35:52.103Z,1023.79
2018-12-13T11:36:52.068Z,1023.79
2018-12-13T11:37:52.034Z,1023.76
2018-12-13T11:38:51.999Z,1023.80
2018-12-13T11:39:51.965Z,1023.77
2018-12-13T11:40:51.930Z,1023.75
2018-12-13T11:41:51.896Z,1023.77
2018-12-13T11:42:51.863Z,1023.77
2018-12-13T11:43:51.830Z,1023.76
2018-12-13T11:44:51.793Z,1023.79
2018-12-13T11:45:51.756Z,1023.77
2018-12-13T11:46:51.723Z,1023.78
2018-12-13T11:47:51.690Z,1023.74
2018-12-13T11:48:51.654Z,1023.71
2018-12-13T11:49:51.619Z,1023.74
2018-12-13T11:50:51.585Z,1023.75
2018-12-13T11:51:51.553Z,1023.76
2018-12-13T11:52:51.516Z,1023.76
2018-12-13T11:53:51.481Z,1023.79
2018-12-13T11:54:51.447Z,1023.75
2018-12-13T11:55:51.411Z,1023.76
2018-12-13T11:56:51.377Z,1023.85
2018-12-13T11:57:51.342Z,1023.81
2018-12-13T11:58:51.319Z,1023.78
2018-12-13T11:59:51.273Z,1023.79
2018-12-13T12:00:51.239Z,1023.78
2018-12-13T12:01:51.205Z,1023.76
2018-12-13T12:02:51.170Z,1023.77
2018-12-13T12:03:51.135Z,1023.75
2018-12-13T12:04:51.104Z,1023.72